Time;durP1;ratioP1;P1;durP2;ratioP2;P2;SDS_P1;SDS_P2;PMS_P1;PMS_P2;Temp;Humidity;BMP_temperature;BMP_pressure;BME280_temperature;BME280_humidity;BME280_pressure;Samples;Min_cycle;Max_cycle;Signal;HPM_P1;HPM_P2
2022/06/01 00:01:06;;;;;;;11.83;10.90;;;;;;;14.16;100.00;92993.81;5051530;28;20194;-82
2022/06/01 00:03:35;;;;;;;13.13;12.07;;;;;;;14.22;100.00;92986.63;5050965;28;20233;-83
2022/06/01 00:06:01;;;;;;;11.67;10.73;;;;;;;14.12;100.00;92982.34;5049226;28;20204;-82
2022/06/01 00:08:26;;;;;;;11.43;10.63;;;;;;;13.83;100.00;92933.78;5067667;28;20221;-83
2022/06/01 00:10:53;;;;;;;12.17;11.37;;;;;;;13.94;100.00;92980.59;5070566;28;20233;-83
2022/06/01 00:13:19;;;;;;;12.23;11.53;;;;;;;13.68;100.00;92953.19;5070465;28;20241;-83
2022/06/01 00:15:45;;;;;;;12.97;12.00;;;;;;;13.81;100.00;92991.03;5070642;28;20216;-83
2022/06/01 00:18:10;;;;;;;12.60;11.80;;;;;;;13.63;100.00;92958.56;5070245;28;20247;-82
2022/06/01 00:20:37;;;;;;;11.57;10.83;;;;;;;13.90;100.00;92990.09;5087140;28;20185;-83
2022/06/01 00:23:02;;;;;;;11.27;10.53;;;;;;;13.78;100.00;92970.63;5070738;28;20248;-83
2022/06/01 00:25:28;;;;;;;12.97;12.07;;;;;;;13.69;100.00;92988.09;5070981;28;20212;-83
2022/06/01 00:27:54;;;;;;;11.07;10.33;;;;;;;13.69;100.00;92991.50;5070287;28;20236;-83
2022/06/01 00:30:21;;;;;;;11.17;10.17;;;;;;;13.62;100.00;92995.56;5069825;28;20196;-82
2022/06/01 00:32:47;;;;;;;12.40;11.50;;;;;;;13.71;100.00;93002.47;5086002;28;20213;-84
2022/06/01 00:35:14;;;;;;;12.50;10.83;;;;;;;13.86;100.00;92994.38;5070433;28;20197;-83
2022/06/01 00:37:40;;;;;;;12.47;11.47;;;;;;;13.72;100.00;92962.06;5069082;28;20229;-83
2022/06/01 00:40:07;;;;;;;10.93;9.97;;;;;;;13.81;100.00;92983.94;5070756;28;20192;-83
2022/06/01 00:42:35;;;;;;;11.50;10.67;;;;;;;13.83;100.00;92981.81;5069765;28;20221;-83
2022/06/01 00:45:02;;;;;;;12.37;11.27;;;;;;;13.62;100.00;92971.97;5069013;28;20194;-84
2022/06/01 00:47:28;;;;;;;12.10;11.20;;;;;;;13.74;100.00;92974.91;5076137;28;20225;-83
2022/06/01 00:50:08;;;;;;;11.60;10.70;;;;;;;13.78;100.00;92973.25;5052313;28;20213;-84
2022/06/01 00:52:38;;;;;;;10.13;9.50;;;;;;;13.70;100.00;92945.03;5049499;28;20234;-83
2022/06/01 00:55:15;;;;;;;11.07;10.20;;;;;;;13.68;100.00;92971.56;5049893;28;20194;-84
2022/06/01 00:57:41;;;;;;;11.37;10.47;;;;;;;13.50;100.00;92980.28;5049934;28;20229;-83
2022/06/01 01:00:15;;;;;;;10.93;10.27;;;;;;;13.26;100.00;92952.59;5049276;28;20182;-83
2022/06/01 01:02:41;;;;;;;10.73;10.00;;;;;;;13.61;100.00;92979.03;5061645;28;20225;-83
2022/06/01 01:05:10;;;;;;;12.47;11.37;;;;;;;13.64;100.00;92975.84;5070350;28;20280;-84
2022/06/01 01:07:38;;;;;;;10.90;10.20;;;;;;;13.53;100.00;92979.69;5069554;28;20225;-83
2022/06/01 01:10:05;;;;;;;11.63;10.47;;;;;;;13.58;100.00;92969.13;5069727;28;20268;-83
2022/06/01 01:12:56;;;;;;;10.93;10.13;;;;;;;13.51;100.00;92960.84;5068647;28;20228;-84
2022/06/01 01:15:18;;;;;;;11.97;10.80;;;;;;;13.35;100.00;92962.16;5069788;28;20193;-84
2022/06/01 01:17:44;;;;;;;10.67;9.90;;;;;;;13.44;100.00;92965.69;5069352;28;20236;-84
2022/06/01 01:20:10;;;;;;;10.53;9.53;;;;;;;13.46;100.00;92953.06;5069821;28;20192;-84
2022/06/01 01:22:57;;;;;;;11.13;10.43;;;;;;;13.21;100.00;92966.56;5068810;28;20233;-83
2022/06/01 01:25:29;;;;;;;11.50;10.80;;;;;;;13.38;100.00;92966.84;5069734;28;20300;-84
2022/06/01 01:27:58;;;;;;;10.77;9.87;;;;;;;13.29;100.00;92962.53;5068218;28;20251;-84
2022/06/01 01:30:36;;;;;;;10.87;10.07;;;;;;;13.26;100.00;92950.75;5069357;28;20272;-84
2022/06/01 01:33:12;;;;;;;10.90;10.30;;;;;;;13.13;100.00;92937.59;5069265;28;20228;-84
2022/06/01 01:35:38;;;;;;;11.40;10.70;;;;;;;13.15;100.00;92938.09;5068574;28;20270;-84
2022/06/01 01:38:09;;;;;;;10.40;9.80;;;;;;;13.01;100.00;92893.50;5068818;28;20217;-84
2022/06/01 01:40:35;;;;;;;10.50;9.90;;;;;;;13.37;100.00;92928.53;5068820;28;20203;-84
2022/06/01 01:43:02;;;;;;;10.57;9.97;;;;;;;13.37;100.00;92923.28;5067888;28;20221;-84
2022/06/01 01:45:34;;;;;;;10.13;9.53;;;;;;;13.44;100.00;92928.97;5069108;28;20205;-84
2022/06/01 01:47:59;;;;;;;11.23;10.63;;;;;;;13.39;100.00;92931.66;5054309;28;20228;-84
2022/06/01 01:50:26;;;;;;;11.23;10.50;;;;;;;13.18;100.00;92929.66;5049145;28;20198;-84
2022/06/01 01:52:53;;;;;;;10.40;9.77;;;;;;;13.29;100.00;92931.81;5049155;28;20240;-84
2022/06/01 01:55:47;;;;;;;11.13;10.17;;;;;;;13.14;100.00;92939.13;5049485;28;20626;-84
2022/06/01 01:58:31;;;;;;;11.90;10.33;;;;;;;13.05;100.00;92936.41;5064654;28;20236;-84
2022/06/01 02:01:10;;;;;;;11.20;10.40;;;;;;;13.17;100.00;92944.59;5084722;28;20196;-83
2022/06/01 02:03:42;;;;;;;10.90;10.17;;;;;;;13.32;100.00;92941.75;5069450;28;20221;-84
2022/06/01 02:06:31;;;;;;;10.47;9.80;;;;;;;13.17;100.00;92935.97;5069500;28;20177;-85
2022/06/01 02:09:03;;;;;;;10.83;10.07;;;;;;;13.26;100.00;92931.63;5048013;28;20225;-84
2022/06/01 02:14:27;;;;;;;10.63;10.03;;;;;;;13.19;100.00;92937.22;5048628;28;20197;-84
2022/06/01 02:17:13;;;;;;;10.63;10.03;;;;;;;13.31;100.00;92944.66;5048050;28;20229;-85
2022/06/01 02:19:47;;;;;;;11.40;10.53;;;;;;;13.05;100.00;92919.88;5049298;28;20182;-85
2022/06/01 02:22:13;;;;;;;11.60;11.00;;;;;;;13.06;100.00;92932.69;5047258;28;20225;-87
2022/06/01 02:24:40;;;;;;;10.90;10.20;;;;;;;12.88;100.00;92915.13;5048455;28;20200;-83
2022/06/01 02:27:08;;;;;;;12.73;10.33;;;;;;;13.03;100.00;92935.91;5048681;28;20222;-84
2022/06/01 02:29:59;;;;;;;11.63;10.93;;;;;;;13.00;100.00;92944.31;5048442;28;20192;-84
2022/06/01 02:32:26;;;;;;;11.10;10.30;;;;;;;13.22;100.00;92951.59;5048389;28;20293;-84
2022/06/01 02:34:54;;;;;;;11.33;10.47;;;;;;;13.24;100.00;92945.03;5048339;28;20213;-84
2022/06/01 02:37:22;;;;;;;10.67;9.97;;;;;;;13.20;100.00;92959.00;5046679;28;20240;-85
2022/06/01 02:39:52;;;;;;;13.67;10.63;;;;;;;13.09;100.00;92941.84;5048745;28;20213;-84
2022/06/01 02:42:30;;;;;;;11.20;10.20;;;;;;;13.13;100.00;92964.59;5062942;28;20228;-86
2022/06/01 02:45:04;;;;;;;11.33;10.57;;;;;;;13.04;100.00;92966.31;5048954;28;20186;-84
2022/06/01 02:47:32;;;;;;;10.27;9.67;;;;;;;13.17;100.00;92962.94;5046788;28;20218;-84
2022/06/01 02:49:59;;;;;;;10.87;9.90;;;;;;;13.05;100.00;92933.78;5048802;28;20182;-85
2022/06/01 02:52:25;;;;;;;10.97;10.00;;;;;;;12.88;100.00;92923.78;5048524;28;20233;-84
2022/06/01 02:54:52;;;;;;;10.00;9.33;;;;;;;13.11;100.00;92953.59;5047696;28;20186;-82
2022/06/01 02:57:18;;;;;;;11.13;10.47;;;;;;;13.16;100.00;92958.78;5055786;28;20224;-84
2022/06/01 02:59:43;;;;;;;9.47;8.97;;;;;;;13.24;100.00;92955.50;5067782;28;20224;-85
2022/06/01 03:02:09;;;;;;;10.83;10.03;;;;;;;13.55;100.00;92956.59;5060033;28;20245;-85
2022/06/01 03:04:39;;;;;;;11.43;10.57;;;;;;;13.87;98.74;92943.41;5048311;28;20187;-85
2022/06/01 03:07:05;;;;;;;11.00;10.37;;;;;;;14.59;94.51;92965.44;5048042;28;20233;-85
2022/06/01 03:09:31;;;;;;;11.33;10.53;;;;;;;14.99;89.82;92969.09;5049470;28;20185;-85
2022/06/01 03:11:57;;;;;;;11.27;10.37;;;;;;;15.35;86.86;92957.47;5048448;28;21378;-85
2022/06/01 03:14:23;;;;;;;10.90;10.20;;;;;;;16.24;82.44;92978.44;5048588;28;20193;-84
2022/06/01 03:16:48;;;;;;;10.90;10.17;;;;;;;16.50;80.57;92956.41;5052883;28;20248;-85
2022/06/01 03:19:14;;;;;;;10.67;9.93;;;;;;;16.15;81.39;92988.97;5069752;28;20201;-85
2022/06/01 03:21:40;;;;;;;9.37;8.87;;;;;;;16.30;82.00;92988.56;5072118;28;20232;-85
2022/06/01 03:24:06;;;;;;;9.77;8.90;;;;;;;16.49;81.02;92983.06;5087031;28;20174;-85
2022/06/01 03:26:32;;;;;;;11.67;10.57;;;;;;;16.89;79.48;92995.91;5071728;28;20209;-84
2022/06/01 03:28:57;;;;;;;9.67;9.07;;;;;;;17.52;75.99;92990.13;5071474;28;20271;-84
2022/06/01 03:31:23;;;;;;;10.20;9.23;;;;;;;17.74;74.49;92999.72;5070303;28;20213;-85
2022/06/01 03:33:48;;;;;;;10.67;9.97;;;;;;;17.67;74.77;92999.41;5071718;28;20260;-84
2022/06/01 03:36:15;;;;;;;9.53;9.10;;;;;;;17.25;76.34;92977.97;5071030;28;20217;-86
2022/06/01 03:38:41;;;;;;;10.63;10.00;;;;;;;18.43;71.64;93001.94;5069929;28;20221;-86
2022/06/01 03:41:06;;;;;;;8.87;8.17;;;;;;;18.58;71.53;93005.94;5072211;28;20255;-84
2022/06/01 03:45:55;;;;;;;9.70;8.97;;;;;;;19.25;68.80;92995.31;5069514;28;20273;-86
2022/06/01 03:46:17;;;;;;;9.87;9.13;;;;;;;20.31;64.35;92995.38;5071274;28;20200;-85
2022/06/01 03:48:43;;;;;;;9.50;9.00;;;;;;;19.49;67.19;93004.19;5073121;28;20195;-72
2022/06/01 03:51:09;;;;;;;12.53;8.53;;;;;;;18.54;71.26;93007.66;5071070;28;20222;-72
2022/06/01 03:53:34;;;;;;;9.37;8.57;;;;;;;18.81;71.18;92994.00;5071338;28;20214;-71
2022/06/01 03:56:02;;;;;;;9.27;8.53;;;;;;;19.95;66.20;93014.56;5071408;28;20198;-70
2022/06/01 03:58:28;;;;;;;10.20;8.87;;;;;;;20.45;64.25;93007.22;5070725;28;20229;-71
2022/06/01 04:00:54;;;;;;;10.47;9.67;;;;;;;19.47;67.34;93008.25;5070352;28;20195;-72
2022/06/01 04:03:19;;;;;;;9.73;9.03;;;;;;;18.93;70.34;93007.31;5054851;28;20217;-80
2022/06/01 04:05:45;;;;;;;10.70;9.80;;;;;;;18.58;71.69;93001.44;5051128;28;20258;-75
2022/06/01 04:08:11;;;;;;;8.90;8.30;;;;;;;18.38;73.05;93004.00;5050233;28;20263;-73
2022/06/01 04:10:38;;;;;;;10.63;9.83;;;;;;;18.14;74.63;93004.47;5080221;28;20178;-73
2022/06/01 04:13:04;;;;;;;10.30;9.47;;;;;;;18.78;72.41;93005.22;5065385;28;20230;-75
2022/06/01 04:15:30;;;;;;;10.23;9.43;;;;;;;18.24;74.25;92993.56;5070938;28;20182;-73
2022/06/01 04:17:55;;;;;;;10.93;10.03;;;;;;;18.00;76.08;93009.19;5070364;28;20237;-74
2022/06/01 04:20:21;;;;;;;12.37;11.23;;;;;;;17.74;78.57;93011.09;5070646;28;20197;-74
2022/06/01 04:22:48;;;;;;;13.23;12.10;;;;;;;17.29;82.27;92993.97;5068811;28;20234;-75
2022/06/01 04:25:17;;;;;;;13.43;12.00;;;;;;;17.47;81.61;93009.53;5069428;28;20249;-74
2022/06/01 04:27:44;;;;;;;14.00;12.80;;;;;;;17.53;81.93;93008.28;5068255;28;20233;-74
2022/06/01 04:30:14;;;;;;;11.67;10.67;;;;;;;17.49;81.87;93015.25;5070747;28;20185;-77
2022/06/01 04:32:39;;;;;;;13.30;12.23;;;;;;;17.46;82.86;93015.88;5085369;28;20249;-77
2022/06/01 04:35:06;;;;;;;14.23;12.97;;;;;;;17.50;81.38;93006.28;5102470;28;20200;-75
2022/06/01 04:37:32;;;;;;;14.63;12.77;;;;;;;17.58;80.50;93016.06;5069618;28;20212;-75
2022/06/01 04:39:58;;;;;;;14.70;13.30;;;;;;;17.04;81.56;92945.34;5070083;28;20177;-78
2022/06/01 04:42:23;;;;;;;19.57;17.67;;;;;;;17.42;82.54;93011.50;5065832;28;20221;-73
2022/06/01 04:44:49;;;;;;;19.23;17.03;;;;;;;17.52;82.76;93012.03;5068489;28;20220;-72
2022/06/01 04:47:14;;;;;;;16.80;15.03;;;;;;;17.71;82.25;93011.72;5069181;28;20285;-73
2022/06/01 04:49:40;;;;;;;16.37;14.60;;;;;;;17.77;81.81;93009.66;5069093;28;20197;-73
2022/06/01 04:52:06;;;;;;;15.97;14.30;;;;;;;17.43;82.10;92974.22;5068633;28;20229;-73
2022/06/01 04:54:32;;;;;;;16.67;14.93;;;;;;;17.75;83.02;92996.00;5067847;28;20213;-71
2022/06/01 04:56:57;;;;;;;14.87;13.43;;;;;;;17.96;82.14;93007.47;5067359;28;20267;-71
2022/06/01 04:59:23;;;;;;;14.57;13.07;;;;;;;17.45;84.69;93016.19;5068222;28;20293;-71
2022/06/01 05:01:48;;;;;;;14.83;13.13;;;;;;;17.72;83.53;93020.38;5064151;28;20828;-73
2022/06/01 05:04:14;;;;;;;14.73;13.13;;;;;;;17.78;82.97;93011.22;5049081;28;20754;-72
2022/06/01 05:06:39;;;;;;;12.73;11.77;;;;;;;18.33;80.32;93026.06;5051100;28;20230;-75
2022/06/01 05:09:05;;;;;;;12.57;11.53;;;;;;;18.65;78.45;93035.28;5058587;28;21256;-75
2022/06/01 05:11:30;;;;;;;14.30;12.97;;;;;;;18.50;78.91;93026.03;5058134;28;20302;-75
2022/06/01 05:13:56;;;;;;;13.80;12.40;;;;;;;18.62;78.67;93026.13;5055840;28;20796;-75
2022/06/01 05:16:21;;;;;;;14.17;12.53;;;;;;;18.49;80.15;93029.00;5053618;28;20202;-75
2022/06/01 05:18:47;;;;;;;14.87;13.60;;;;;;;18.58;80.57;93040.31;5060341;28;20236;-74
2022/06/01 05:21:13;;;;;;;14.80;13.30;;;;;;;18.96;78.67;93038.44;5057294;28;20185;-74
2022/06/01 05:23:38;;;;;;;14.33;12.80;;;;;;;18.91;79.89;93033.34;5048931;28;20235;-74
2022/06/01 05:26:04;;;;;;;16.00;13.87;;;;;;;18.94;77.46;93030.81;5049057;28;20298;-74
2022/06/01 05:28:32;;;;;;;14.97;13.67;;;;;;;19.69;74.64;93037.84;5067262;28;20230;-74
2022/06/01 05:30:59;;;;;;;16.53;13.10;;;;;;;21.50;67.92;93051.50;5067222;28;20200;-75
2022/06/01 05:33:25;;;;;;;16.33;12.97;;;;;;;24.53;57.64;93053.31;5066652;28;20232;-75
2022/06/01 05:35:51;;;;;;;12.23;11.13;;;;;;;27.15;50.46;93060.13;5065702;28;20219;-75
2022/06/01 05:38:16;;;;;;;12.82;11.77;;;;;;;27.52;46.24;93070.81;5067748;28;20215;-75
2022/06/01 05:40:42;;;;;;;14.38;11.40;;;;;;;31.79;38.73;93063.78;5067600;28;20224;-75
2022/06/01 05:43:15;;;;;;;12.18;10.98;;;;;;;33.21;34.87;93074.56;5066552;28;20314;-76
2022/06/01 05:45:41;;;;;;;12.18;10.98;;;;;;;34.26;33.33;93072.88;5067716;28;20185;-76
2022/06/01 05:48:09;;;;;;;11.98;11.02;;;;;;;34.57;31.36;93063.38;5051559;28;20229;-75
2022/06/01 05:50:35;;;;;;;13.93;11.45;;;;;;;34.31;31.12;93068.94;5048383;28;20199;-80
2022/06/01 05:53:00;;;;;;;12.27;11.15;;;;;;;29.52;40.26;93050.88;5046408;28;20710;-77
2022/06/01 05:55:26;;;;;;;11.35;10.38;;;;;;;34.02;32.50;93036.94;5063496;28;20591;-76
2022/06/01 05:57:51;;;;;;;12.13;11.10;;;;;;;34.48;31.05;93054.31;5047920;28;20357;-74
2022/06/01 06:00:17;;;;;;;10.85;9.85;;;;;;;34.13;31.89;93063.84;5045536;28;20186;-75
2022/06/01 06:02:43;;;;;;;11.60;10.50;;;;;;;33.72;31.63;93066.84;5048606;28;20241;-76
2022/06/01 06:07:55;;;;;;;11.85;10.65;;;;;;;32.36;34.21;93058.63;5048115;28;20289;-79
2022/06/01 06:10:21;;;;;;;12.65;11.13;;;;;;;33.16;32.86;93048.72;5048914;28;20261;-84
2022/06/01 06:12:46;;;;;;;11.20;9.35;;;;;;;32.59;33.93;93050.63;5048724;28;20236;-81
2022/06/01 06:15:12;;;;;;;11.82;10.70;;;;;;;34.80;30.44;93049.75;5047739;28;20182;-82
2022/06/01 06:17:38;;;;;;;10.30;9.43;;;;;;;34.47;31.17;93031.84;5048405;28;20233;-81
2022/06/01 06:20:04;;;;;;;10.73;9.77;;;;;;;35.12;30.11;93041.72;5049137;28;20178;-82
2022/06/01 06:22:29;;;;;;;11.00;10.10;;;;;;;35.64;28.89;93049.84;5048181;28;20228;-81
2022/06/01 06:24:55;;;;;;;9.68;8.90;;;;;;;35.76;28.81;93056.56;5049626;28;20190;-81
2022/06/01 06:27:20;;;;;;;11.52;10.00;;;;;;;36.48;28.14;93080.38;5048487;28;20237;-81
2022/06/01 06:29:46;;;;;;;10.65;9.65;;;;;;;35.90;28.91;93034.47;5048379;28;20206;-82
2022/06/01 06:32:11;;;;;;;11.05;10.07;;;;;;;32.66;34.07;93054.00;5047862;28;20234;-82
2022/06/01 06:34:38;;;;;;;11.18;9.98;;;;;;;34.11;30.30;93011.97;5046780;28;20188;-81
2022/06/01 06:37:03;;;;;;;10.65;9.65;;;;;;;34.70;29.57;93058.88;5048719;28;20922;-81
2022/06/01 06:39:29;;;;;;;11.32;9.70;;;;;;;35.21;29.54;93063.63;5047568;28;20187;-81
2022/06/01 06:41:54;;;;;;;12.30;10.05;;;;;;;30.91;36.82;93047.44;5047748;28;20222;-82
2022/06/01 06:44:20;;;;;;;10.48;9.60;;;;;;;29.33;39.85;93042.41;5049217;28;20190;-82
2022/06/01 06:46:45;;;;;;;10.27;9.40;;;;;;;28.41;43.21;93046.03;5064087;28;20293;-81
2022/06/01 06:49:10;;;;;;;11.73;10.63;;;;;;;25.33;53.62;93028.38;5066530;28;20193;-81
2022/06/01 06:51:37;;;;;;;10.32;9.63;;;;;;;25.25;51.66;93030.16;5047646;28;20248;-82
2022/06/01 06:54:02;;;;;;;11.25;10.45;;;;;;;24.17;55.11;92994.31;5049467;28;20195;-82
2022/06/01 06:56:28;;;;;;;12.35;11.20;;;;;;;23.17;56.53;92973.88;5052099;28;20339;-81
2022/06/01 06:58:54;;;;;;;11.48;10.68;;;;;;;22.59;60.18;92991.53;5068911;28;20196;-81
2022/06/01 07:01:19;;;;;;;11.75;10.23;;;;;;;22.99;61.00;93005.44;5052012;28;20226;-81
2022/06/01 07:03:45;;;;;;;21.23;10.88;;;;;;;23.17;59.26;92993.31;5073039;28;20206;-81
2022/06/01 07:06:13;;;;;;;11.95;10.77;;;;;;;22.33;63.74;92985.13;5071914;28;20196;-81
2022/06/01 07:08:45;;;;;;;11.93;10.82;;;;;;;22.16;63.77;93002.94;5072251;28;20231;-81
2022/06/01 07:11:12;;;;;;;12.40;11.50;;;;;;;22.75;63.10;93016.28;5071505;28;20225;-81
2022/06/01 07:13:38;;;;;;;11.73;10.82;;;;;;;22.67;63.53;93014.56;5071248;28;20242;-81
2022/06/01 07:16:06;;;;;;;12.38;11.10;;;;;;;22.65;63.96;93016.78;5072337;28;20194;-81
2022/06/01 07:18:33;;;;;;;14.30;11.75;;;;;;;22.11;65.09;92981.13;5070921;28;20211;-80
2022/06/01 07:20:58;;;;;;;12.63;11.43;;;;;;;22.36;63.06;93014.47;5072572;28;20202;-80
2022/06/01 07:23:25;;;;;;;12.18;11.18;;;;;;;22.10;65.19;92966.31;5087609;28;20296;-81
2022/06/01 07:25:52;;;;;;;12.82;11.35;;;;;;;22.10;63.03;92968.97;5071760;28;21253;-81
2022/06/01 07:28:19;;;;;;;11.02;10.23;;;;;;;22.24;62.99;92986.03;5087634;28;20235;-80
2022/06/01 07:30:44;;;;;;;11.05;10.18;;;;;;;22.22;64.41;92971.56;5071711;28;20187;-80
2022/06/01 07:33:11;;;;;;;11.20;10.20;;;;;;;21.71;65.37;92887.38;5069566;28;20229;-81
2022/06/01 07:35:37;;;;;;;13.05;11.48;;;;;;;22.38;65.56;92968.91;5072063;28;20278;-81
2022/06/01 07:43:30;;;;;;;16.10;11.40;;;;;;;22.75;63.84;93002.97;5052350;28;20232;-80
2022/06/01 07:45:56;;;;;;;11.95;11.00;;;;;;;22.94;63.40;93013.69;5067749;28;20192;-81
2022/06/01 07:48:21;;;;;;;12.88;11.77;;;;;;;22.46;62.20;92995.34;5051435;28;20239;-80
2022/06/01 07:50:50;;;;;;;12.40;11.48;;;;;;;22.38;63.97;93017.59;5051922;28;20197;-80
2022/06/01 07:53:16;;;;;;;13.68;12.32;;;;;;;22.48;65.18;93017.06;5067249;28;20355;-80
2022/06/01 07:55:42;;;;;;;12.05;11.10;;;;;;;22.49;64.66;93018.59;5071438;28;20188;-81
2022/06/01 07:58:08;;;;;;;12.63;11.63;;;;;;;22.24;65.09;92995.94;5069969;28;20298;-79
2022/06/01 08:00:34;;;;;;;12.70;11.60;;;;;;;22.15;64.12;92989.97;5070201;28;20962;-80
2022/06/01 08:03:00;;;;;;;12.73;11.60;;;;;;;21.90;68.13;92965.38;5070834;28;20234;-80
2022/06/01 08:05:26;;;;;;;14.82;13.23;;;;;;;22.81;64.71;93014.91;5071069;28;20189;-80
2022/06/01 08:07:52;;;;;;;13.65;12.30;;;;;;;22.41;67.13;93010.78;5070577;28;20236;-80
2022/06/01 08:10:19;;;;;;;14.00;12.52;;;;;;;22.66;64.48;93023.66;5071242;28;20187;-80
2022/06/01 08:15:30;;;;;;;13.20;12.10;;;;;;;22.78;66.27;93012.16;5070427;28;20211;-81
2022/06/01 08:17:57;;;;;;;12.88;11.50;;;;;;;22.65;67.31;92987.50;5071002;28;20220;-81
2022/06/01 08:20:24;;;;;;;13.77;12.45;;;;;;;22.56;66.36;92964.81;5070079;28;20195;-80
2022/06/01 08:22:51;;;;;;;16.90;12.02;;;;;;;23.22;62.41;92982.38;5069727;28;20218;-80
2022/06/01 08:25:16;;;;;;;17.58;12.60;;;;;;;23.12;63.94;93009.56;5070304;28;20212;-80
2022/06/01 08:27:45;;;;;;;18.45;13.63;;;;;;;23.22;61.55;92998.34;5069917;28;20219;-80
2022/06/01 08:30:13;;;;;;;14.40;13.18;;;;;;;23.19;62.75;93020.38;5071017;28;20248;-80
2022/06/01 08:32:38;;;;;;;13.07;12.05;;;;;;;23.26;60.50;92996.59;5070027;28;21548;-79
2022/06/01 08:35:06;;;;;;;13.88;12.25;;;;;;;23.19;60.99;92969.75;5067703;28;20188;-81
2022/06/01 08:37:32;;;;;;;16.92;13.90;;;;;;;22.85;65.04;92993.69;5070122;28;20227;-80
2022/06/01 08:39:57;;;;;;;14.80;13.18;;;;;;;22.71;65.50;93010.06;5070760;28;20188;-81
2022/06/01 08:42:23;;;;;;;13.80;12.63;;;;;;;22.60;65.62;92976.34;5061158;28;20700;-80
2022/06/01 08:44:51;;;;;;;14.77;13.35;;;;;;;23.16;63.54;93004.31;5051220;28;20282;-80
2022/06/01 08:47:16;;;;;;;14.07;12.50;;;;;;;23.51;60.77;93021.13;5051791;28;20300;-79
2022/06/01 08:49:42;;;;;;;13.40;12.10;;;;;;;23.06;63.72;92955.00;5052879;28;20188;-80
2022/06/01 08:52:08;;;;;;;11.82;10.80;;;;;;;23.09;58.61;93010.25;5065215;28;20280;-81
2022/06/01 08:54:34;;;;;;;12.27;11.38;;;;;;;23.48;56.69;93014.59;5050412;28;20195;-79
2022/06/01 08:57:03;;;;;;;12.43;10.80;;;;;;;23.81;53.38;93013.38;5050188;28;20228;-80
2022/06/01 08:59:43;;;;;;;10.25;9.35;;;;;;;23.33;54.10;93001.31;5050654;28;20253;-80
2022/06/01 09:02:14;;;;;;;11.38;10.43;;;;;;;23.31;59.31;93012.31;5057551;28;20224;-80
2022/06/01 09:04:53;;;;;;;12.30;11.25;;;;;;;23.24;57.71;93004.13;5069171;28;20188;-79
2022/06/01 09:07:18;;;;;;;11.52;10.63;;;;;;;23.72;56.09;93017.00;5069303;28;20925;-79
2022/06/01 09:09:53;;;;;;;11.20;10.20;;;;;;;23.64;55.07;93020.63;5069886;28;20185;-80
2022/06/01 09:12:18;;;;;;;14.48;10.43;;;;;;;23.81;53.06;93018.69;5066570;28;20219;-86
2022/06/01 09:14:47;;;;;;;11.60;10.43;;;;;;;23.75;52.92;93010.22;5070449;28;20198;-84
2022/06/01 09:17:13;;;;;;;10.00;9.20;;;;;;;23.70;53.57;93019.25;5069583;28;20257;-85
2022/06/01 09:22:39;;;;;;;13.18;11.98;;;;;;;24.13;55.90;93014.81;5069463;28;20229;-85
2022/06/01 09:25:06;;;;;;;11.57;10.55;;;;;;;23.92;55.67;93025.81;5070215;28;21120;-84
2022/06/01 09:27:44;;;;;;;13.10;11.65;;;;;;;23.94;53.79;93001.47;5069390;28;20238;-82
2022/06/01 09:30:26;;;;;;;12.77;10.45;;;;;;;23.80;56.67;93012.59;5084954;28;20198;-85
2022/06/01 09:33:24;;;;;;;11.25;10.35;;;;;;;23.84;53.74;93004.66;5068308;28;20240;-84
2022/06/01 09:36:08;;;;;;;12.07;10.88;;;;;;;23.96;53.87;93018.66;5068948;28;20219;-87
2022/06/01 09:38:41;;;;;;;11.43;10.48;;;;;;;24.05;53.61;93010.47;5069000;28;20230;-86
2022/06/01 09:41:09;;;;;;;10.82;9.95;;;;;;;23.93;52.55;93002.56;5069817;28;20211;-83
2022/06/01 09:43:39;;;;;;;11.90;10.63;;;;;;;23.98;52.66;93013.78;5069401;28;20219;-84
2022/06/01 09:46:05;;;;;;;11.00;9.55;;;;;;;24.24;52.02;92999.75;5070198;28;20212;-87
2022/06/01 09:48:34;;;;;;;10.13;9.07;;;;;;;24.33;51.39;93008.34;5069520;28;20243;-84
2022/06/01 09:51:08;;;;;;;10.30;9.50;;;;;;;24.14;53.13;93000.34;5069912;28;20196;-85
2022/06/01 09:53:43;;;;;;;10.90;9.95;;;;;;;24.36;51.90;92999.63;5068950;28;20244;-85
2022/06/01 09:56:09;;;;;;;10.25;9.27;;;;;;;24.69;50.13;92999.84;5068350;28;20176;-82
2022/06/01 10:07:05;;;;;;;9.70;8.98;;;;;;;24.98;49.13;92985.84;5049153;28;20247;-86
2022/06/01 10:09:33;;;;;;;10.60;9.70;;;;;;;24.75;46.32;92977.06;5049772;28;20197;-84
2022/06/01 10:12:14;;;;;;;10.52;9.48;;;;;;;24.91;47.80;92999.09;5064230;28;20301;-87
2022/06/01 10:14:48;;;;;;;9.27;8.68;;;;;;;24.92;45.26;92998.72;5049117;28;20209;-86
2022/06/01 10:17:35;;;;;;;10.10;9.23;;;;;;;24.75;44.64;92993.88;5079918;28;20235;-85
2022/06/01 10:20:22;;;;;;;9.90;8.95;;;;;;;24.60;44.19;92997.41;5049282;28;20191;-86
2022/06/01 10:23:16;;;;;;;9.18;8.52;;;;;;;24.60;43.26;92996.63;5061484;28;20226;-85
2022/06/01 10:25:53;;;;;;;8.32;7.80;;;;;;;24.87;44.41;93001.69;5063656;28;20284;-83
2022/06/01 10:28:31;;;;;;;9.68;8.85;;;;;;;24.58;42.81;92996.97;5071646;28;20227;-85
2022/06/01 10:31:00;;;;;;;9.57;8.77;;;;;;;25.22;43.75;92990.78;5072963;28;20201;-84
2022/06/01 10:33:42;;;;;;;9.68;8.98;;;;;;;25.34;39.70;92995.19;5071110;28;20242;-87
2022/06/01 10:36:20;;;;;;;8.55;7.88;;;;;;;25.06;40.77;92977.56;5072533;28;20255;-84
2022/06/01 10:38:54;;;;;;;7.78;7.18;;;;;;;25.16;38.95;92995.69;5071582;28;20904;-86
2022/06/01 10:41:32;;;;;;;7.85;7.25;;;;;;;25.15;41.32;92988.78;5072276;28;20242;-84
2022/06/01 10:44:04;;;;;;;8.55;7.97;;;;;;;25.52;43.69;92988.19;5071475;28;20186;-84
2022/06/01 10:46:48;;;;;;;8.07;7.60;;;;;;;25.51;38.45;92987.41;5073369;28;20184;-85
2022/06/01 10:49:29;;;;;;;8.63;7.80;;;;;;;25.56;38.51;92984.44;5072229;28;20243;-84
2022/06/01 10:52:20;;;;;;;8.27;7.68;;;;;;;25.58;39.41;92982.19;5071824;28;20224;-85
2022/06/01 10:55:03;;;;;;;7.57;7.13;;;;;;;25.57;38.11;92985.22;5072249;28;20184;-84
2022/06/01 10:57:28;;;;;;;8.55;8.05;;;;;;;25.52;40.47;92967.59;5071551;28;20231;-84
2022/06/01 10:59:54;;;;;;;8.63;7.93;;;;;;;25.63;39.40;92973.84;5072684;28;20178;-85
2022/06/01 11:02:47;;;;;;;8.40;7.93;;;;;;;25.79;40.86;92982.44;5072245;28;20228;-85
2022/06/01 11:05:25;;;;;;;8.60;7.75;;;;;;;25.82;38.32;92960.31;5072854;28;20195;-85
2022/06/01 11:08:09;;;;;;;8.57;7.72;;;;;;;25.53;41.26;92977.13;5071520;28;20247;-84
2022/06/01 11:10:38;;;;;;;9.23;8.63;;;;;;;25.65;38.73;92976.91;5072527;28;20184;-84
2022/06/01 11:13:12;;;;;;;8.43;7.93;;;;;;;25.27;41.54;92967.22;5072138;28;20256;-85
2022/06/01 11:15:45;;;;;;;10.88;8.50;;;;;;;25.52;41.91;92972.94;5072402;28;20176;-85
2022/06/01 11:18:26;;;;;;;9.60;8.70;;;;;;;25.43;41.92;92967.09;5072023;28;20224;-85
2022/06/01 11:21:07;;;;;;;8.32;7.63;;;;;;;25.98;40.88;92965.47;5073117;28;20188;-85
2022/06/01 11:23:49;;;;;;;8.77;8.18;;;;;;;26.02;38.54;92960.97;5072235;28;20242;-84
2022/06/01 11:26:27;;;;;;;7.43;7.05;;;;;;;25.98;36.31;92968.91;5072208;28;20196;-84
2022/06/01 11:29:11;;;;;;;8.25;7.75;;;;;;;25.19;36.72;92965.56;5071495;28;20214;-84
2022/06/01 11:31:39;;;;;;;8.73;7.90;;;;;;;25.19;40.41;92954.09;5071865;28;20232;-86
2022/06/01 11:34:11;;;;;;;8.63;8.07;;;;;;;25.21;39.04;92957.19;5072414;28;20246;-85
2022/06/01 11:36:56;;;;;;;8.25;7.68;;;;;;;25.58;40.49;92950.09;5087145;28;20227;-84
2022/06/01 11:39:34;;;;;;;9.52;8.70;;;;;;;25.94;39.45;92952.06;5071206;28;20203;-86
2022/06/01 11:42:08;;;;;;;9.55;8.65;;;;;;;25.87;40.00;92956.56;5070314;28;20219;-85
2022/06/01 11:44:37;;;;;;;8.30;7.72;;;;;;;25.82;40.51;92952.28;5103898;28;20195;-84
2022/06/01 11:47:16;;;;;;;8.68;7.90;;;;;;;26.16;39.97;92959.22;5065246;28;20233;-84
2022/06/01 11:49:59;;;;;;;8.10;7.57;;;;;;;26.27;38.88;92954.72;5051179;28;20177;-85
2022/06/01 11:52:24;;;;;;;9.13;8.43;;;;;;;26.27;40.01;92954.72;5051700;28;20224;-85
2022/06/01 11:55:10;;;;;;;9.32;8.30;;;;;;;26.21;39.67;92950.84;5052166;28;20190;-85